Terminal Aerodrome Forecast
Issued by NWS Cleveland, OH

Home | Current Version | Previous Version | Graphics & Text | Print | Product List | Glossary On
Versions: 1 2 3 4 5 6 7 8 9 10 11 12 13 14 15 16 17 18 19 20
902
FTUS41 KCLE 040527
TAFERI
TAF
KERI 040527Z 0406/0506 25015G25KT P6SM SCT015 OVC025
     FM041200 26012KT P6SM SCT015 OVC025
     FM041800 27012KT P6SM VCSH OVC015
     FM050400 29008KT P6SM OVC025=

USA.gov is the U.S. government's official web portal to all federal, state and local government web resources and services.